createdAt,value
2018-07-26T00:01:22.638Z,4.00
2018-07-26T00:03:50.772Z,4.77
2018-07-26T00:06:18.864Z,4.30
2018-07-26T00:08:46.959Z,4.43
2018-07-26T00:11:15.035Z,4.10
2018-07-26T00:13:43.127Z,3.90
2018-07-26T00:16:11.214Z,4.40
2018-07-26T00:18:39.307Z,3.90
2018-07-26T00:21:07.414Z,5.77
2018-07-26T00:23:35.500Z,4.73
2018-07-26T00:26:03.578Z,6.27
2018-07-26T00:28:31.675Z,5.33
2018-07-26T00:31:00.039Z,5.40
2018-07-26T00:33:28.131Z,5.57
2018-07-26T00:35:56.202Z,5.83
2018-07-26T00:38:24.313Z,5.03
2018-07-26T00:40:52.454Z,5.53
2018-07-26T00:43:20.604Z,5.08
2018-07-26T00:45:48.701Z,5.53
2018-07-26T00:48:16.790Z,5.93
2018-07-26T00:50:44.918Z,5.03
2018-07-26T00:53:13.004Z,5.10
2018-07-26T00:55:41.111Z,4.80
2018-07-26T00:58:09.994Z,5.47
2018-07-26T01:00:38.116Z,4.53
2018-07-26T01:03:06.230Z,5.10
2018-07-26T01:05:34.323Z,4.50
2018-07-26T01:08:02.502Z,4.60
2018-07-26T01:10:30.583Z,5.63
2018-07-26T01:12:58.684Z,4.90
2018-07-26T01:15:26.771Z,5.57
2018-07-26T01:17:55.075Z,4.93
2018-07-26T01:20:23.167Z,5.60
2018-07-26T01:22:51.252Z,4.77
2018-07-26T01:25:19.358Z,5.20
2018-07-26T01:27:47.442Z,5.00
2018-07-26T01:30:15.546Z,5.87
2018-07-26T01:32:43.645Z,5.10
2018-07-26T01:35:11.731Z,5.60
2018-07-26T01:37:39.835Z,5.30
2018-07-26T01:40:07.950Z,5.07
2018-07-26T01:44:45.128Z,5.00
2018-07-26T01:47:13.220Z,5.70
2018-07-26T01:49:41.547Z,6.25
2018-07-26T01:52:09.628Z,6.03
2018-07-26T01:54:37.734Z,6.83
2018-07-26T01:57:05.828Z,4.90
2018-07-26T01:59:33.940Z,5.60
2018-07-26T02:02:02.120Z,5.43
2018-07-26T02:04:30.190Z,6.20
2018-07-26T02:06:58.267Z,6.20
2018-07-26T02:09:26.361Z,5.70
2018-07-26T02:11:54.475Z,4.50
2018-07-26T02:14:28.160Z,5.00
2018-07-26T02:16:56.255Z,6.30
2018-07-26T02:19:24.325Z,5.72
2018-07-26T02:21:52.446Z,5.92
2018-07-26T02:24:20.527Z,5.67
2018-07-26T02:26:48.621Z,5.17
2018-07-26T02:29:16.717Z,5.47
2018-07-26T02:31:44.823Z,5.80
2018-07-26T02:34:12.981Z,6.10
2018-07-26T02:36:41.115Z,6.20
2018-07-26T02:39:09.962Z,5.80
2018-07-26T02:41:38.366Z,5.45
2018-07-26T02:44:06.445Z,5.40
2018-07-26T02:46:34.537Z,6.47
2018-07-26T02:49:02.608Z,6.00
2018-07-26T02:51:30.699Z,6.75
2018-07-26T02:54:06.509Z,5.80
2018-07-26T02:56:34.595Z,5.60
2018-07-26T02:59:02.685Z,6.45
2018-07-26T03:01:30.779Z,6.13
2018-07-26T03:03:58.892Z,6.35
2018-07-26T03:06:26.998Z,6.83
2018-07-26T03:08:55.178Z,5.93
2018-07-26T03:11:23.279Z,6.00
2018-07-26T03:13:51.374Z,6.97
2018-07-26T03:16:19.475Z,5.40
2018-07-26T03:18:47.569Z,5.80
2018-07-26T03:21:15.992Z,5.13
2018-07-26T03:23:44.871Z,5.60
2018-07-26T03:26:13.040Z,6.47
2018-07-26T03:28:41.115Z,5.97
2018-07-26T03:31:09.482Z,6.67
2018-07-26T03:33:37.608Z,5.43
2018-07-26T03:36:05.696Z,5.63
2018-07-26T03:38:33.802Z,6.85
2018-07-26T03:41:02.009Z,7.67
2018-07-26T03:43:30.209Z,10.73
2018-07-26T03:45:58.264Z,10.10
2018-07-26T03:48:26.352Z,9.53
2018-07-26T03:50:54.439Z,8.00
2018-07-26T03:53:22.547Z,6.80
2018-07-26T03:55:57.034Z,7.03
2018-07-26T03:58:25.110Z,7.20
2018-07-26T04:00:53.200Z,6.90
2018-07-26T04:03:21.366Z,8.10
2018-07-26T04:05:49.447Z,7.37
2018-07-26T04:08:17.514Z,8.33
2018-07-26T04:10:46.032Z,8.40
2018-07-26T04:13:14.396Z,7.07
2018-07-26T04:15:42.485Z,8.50
2018-07-26T04:18:10.571Z,7.17
2018-07-26T04:20:38.657Z,9.30
2018-07-26T04:23:06.810Z,7.47
2018-07-26T04:25:34.901Z,7.53
2018-07-26T04:28:03.400Z,8.90
2018-07-26T04:30:31.482Z,9.55
2018-07-26T04:32:59.592Z,10.67
2018-07-26T04:35:27.709Z,11.03
2018-07-26T04:37:55.818Z,9.17
2018-07-26T04:40:23.915Z,10.00
2018-07-26T04:42:52.060Z,8.95
2018-07-26T04:45:20.144Z,8.18
2018-07-26T04:47:48.219Z,7.72
2018-07-26T04:50:16.320Z,6.50
2018-07-26T04:52:44.472Z,7.57
2018-07-26T04:55:12.534Z,9.00
2018-07-26T04:57:40.624Z,8.33
2018-07-26T05:00:08.799Z,8.30
2018-07-26T05:02:37.103Z,7.57
2018-07-26T05:05:05.699Z,9.17
2018-07-26T05:07:33.803Z,9.27
2018-07-26T05:10:01.933Z,7.57
2018-07-26T05:12:30.018Z,8.47
2018-07-26T05:14:58.192Z,6.97
2018-07-26T05:17:26.295Z,8.50
2018-07-26T05:19:54.387Z,7.47
2018-07-26T05:22:22.555Z,7.60
2018-07-26T05:24:50.643Z,7.40
2018-07-26T05:27:18.891Z,8.53
2018-07-26T05:29:46.995Z,7.80
2018-07-26T05:32:15.088Z,8.27
2018-07-26T05:34:43.202Z,8.40
2018-07-26T05:37:11.303Z,7.87
2018-07-26T05:39:39.392Z,7.87
2018-07-26T05:42:07.476Z,7.70
2018-07-26T05:44:35.579Z,9.07
2018-07-26T05:47:03.669Z,7.30
2018-07-26T05:49:31.763Z,7.57
2018-07-26T05:51:59.831Z,7.80
2018-07-26T05:54:27.929Z,8.13
2018-07-26T05:56:56.014Z,6.60
2018-07-26T05:59:24.191Z,8.40
2018-07-26T06:01:52.294Z,8.47
2018-07-26T06:04:20.445Z,10.53
2018-07-26T06:06:48.530Z,12.00
2018-07-26T06:09:16.636Z,12.53
2018-07-26T06:11:44.724Z,13.53
2018-07-26T06:14:12.824Z,12.93
2018-07-26T06:16:40.909Z,12.97
2018-07-26T06:19:09.009Z,13.18
2018-07-26T06:21:37.120Z,13.97
2018-07-26T06:24:05.436Z,12.93
2018-07-26T06:26:33.523Z,13.37
2018-07-26T06:29:01.620Z,12.83
2018-07-26T06:31:29.754Z,12.93
2018-07-26T06:33:57.840Z,13.20
2018-07-26T06:36:25.962Z,13.40
2018-07-26T06:38:54.056Z,13.63
2018-07-26T06:41:22.177Z,14.30
2018-07-26T06:43:50.279Z,13.90
2018-07-26T06:46:18.454Z,13.67
2018-07-26T06:48:46.555Z,15.27
2018-07-26T06:51:14.656Z,15.57
2018-07-26T06:53:42.733Z,15.97
2018-07-26T06:56:11.136Z,14.60
2018-07-26T06:58:39.227Z,12.93
2018-07-26T07:01:07.624Z,15.60
2018-07-26T07:03:35.711Z,15.67
2018-07-26T07:06:03.856Z,13.80
2018-07-26T07:08:31.943Z,12.63
2018-07-26T07:11:00.056Z,12.17
2018-07-26T07:13:28.157Z,12.20
2018-07-26T07:15:56.250Z,9.70
2018-07-26T07:18:24.568Z,10.90
2018-07-26T07:20:53.408Z,12.15
2018-07-26T07:23:21.514Z,13.50
2018-07-26T07:25:49.610Z,12.07
2018-07-26T07:28:17.709Z,9.90
2018-07-26T07:30:45.811Z,8.47
2018-07-26T07:33:13.990Z,8.10
2018-07-26T07:35:41.979Z,6.10
2018-07-26T07:38:10.075Z,6.07
2018-07-26T07:40:38.149Z,6.30
2018-07-26T07:43:06.272Z,6.23
2018-07-26T07:45:34.358Z,7.10
2018-07-26T07:48:02.460Z,6.47
2018-07-26T07:50:30.534Z,8.50
2018-07-26T07:52:58.641Z,9.57
2018-07-26T07:55:26.716Z,6.53
2018-07-26T07:57:54.827Z,6.97
2018-07-26T08:00:22.931Z,8.80
2018-07-26T08:02:51.035Z,9.97
2018-07-26T08:05:19.143Z,5.90
2018-07-26T08:07:47.207Z,9.10
2018-07-26T08:10:15.293Z,9.10
2018-07-26T08:12:43.373Z,9.03
2018-07-26T08:15:11.769Z,8.77
2018-07-26T08:17:39.847Z,8.80
2018-07-26T08:20:09.037Z,9.00
2018-07-26T08:22:37.127Z,6.17
2018-07-26T08:25:06.343Z,6.57
2018-07-26T08:27:34.465Z,6.50
2018-07-26T08:30:02.584Z,8.00
2018-07-26T08:32:30.677Z,7.10
2018-07-26T08:34:59.248Z,5.47
2018-07-26T08:37:27.303Z,6.73
2018-07-26T08:39:55.374Z,8.00
2018-07-26T08:42:23.521Z,6.87
2018-07-26T08:44:51.559Z,7.23
2018-07-26T08:47:19.638Z,6.00
2018-07-26T08:49:47.752Z,6.50
2018-07-26T08:52:15.978Z,5.47
2018-07-26T08:54:44.251Z,5.25
2018-07-26T08:57:12.353Z,5.10
2018-07-26T08:59:40.459Z,5.17
2018-07-26T09:02:08.560Z,6.55
2018-07-26T09:04:36.657Z,4.13
2018-07-26T09:07:04.771Z,4.40
2018-07-26T09:09:32.855Z,3.73
2018-07-26T09:12:00.940Z,3.73
2018-07-26T09:14:29.040Z,3.97
2018-07-26T09:16:58.172Z,3.27
2018-07-26T09:19:26.264Z,3.40
2018-07-26T09:21:54.346Z,4.20
2018-07-26T09:24:22.741Z,3.90
2018-07-26T09:26:50.796Z,3.63
2018-07-26T09:29:18.973Z,3.10
2018-07-26T09:31:47.236Z,2.70
2018-07-26T09:34:15.396Z,2.63
2018-07-26T09:36:43.488Z,2.23
2018-07-26T09:39:16.307Z,2.80
2018-07-26T09:41:45.665Z,2.90
2018-07-26T09:44:15.105Z,2.83
2018-07-26T09:46:43.188Z,2.03
2018-07-26T09:49:11.275Z,2.23
2018-07-26T09:51:39.362Z,2.42
2018-07-26T09:54:07.576Z,2.00
2018-07-26T09:56:35.667Z,2.60
2018-07-26T09:59:03.751Z,2.40
2018-07-26T10:01:33.516Z,2.60
2018-07-26T10:04:01.634Z,2.20
2018-07-26T10:06:30.507Z,2.75
2018-07-26T10:08:58.720Z,2.80
2018-07-26T10:11:27.539Z,2.63
2018-07-26T10:13:56.158Z,2.33
2018-07-26T10:16:24.423Z,2.40
2018-07-26T10:18:52.531Z,2.30
2018-07-26T10:21:20.727Z,2.30
2018-07-26T10:23:48.822Z,2.33
2018-07-26T10:26:16.906Z,2.00
2018-07-26T10:28:45.006Z,2.73
2018-07-26T10:31:13.104Z,2.20
2018-07-26T10:33:41.207Z,2.10
2018-07-26T10:36:09.308Z,2.52
2018-07-26T10:38:37.388Z,2.40
2018-07-26T10:41:05.532Z,2.27
2018-07-26T10:43:33.627Z,2.13
2018-07-26T10:46:02.751Z,2.40
2018-07-26T10:48:31.316Z,1.90
2018-07-26T10:50:59.426Z,2.10
2018-07-26T10:53:27.525Z,1.87
2018-07-26T10:55:55.627Z,1.80
2018-07-26T10:58:23.698Z,1.70
2018-07-26T11:00:51.803Z,2.10
2018-07-26T11:03:20.087Z,2.62
2018-07-26T11:05:48.176Z,3.50
2018-07-26T11:08:16.397Z,2.07
2018-07-26T11:10:44.475Z,2.10
2018-07-26T11:13:12.571Z,1.80
2018-07-26T11:15:40.659Z,2.07
2018-07-26T11:18:08.739Z,2.30
2018-07-26T11:20:36.835Z,2.30
2018-07-26T11:23:04.937Z,2.27
2018-07-26T11:25:33.068Z,2.00
2018-07-26T11:28:01.135Z,2.10
2018-07-26T11:30:29.257Z,2.00
2018-07-26T11:32:57.336Z,1.90
2018-07-26T11:35:25.415Z,1.90
2018-07-26T11:37:53.531Z,1.70
2018-07-26T11:40:21.700Z,1.60
2018-07-26T11:42:49.868Z,1.60
2018-07-26T11:45:17.979Z,1.80
2018-07-26T11:47:46.068Z,1.90
2018-07-26T11:50:14.229Z,1.90
2018-07-26T11:52:42.252Z,1.60
2018-07-26T11:55:10.356Z,2.00
2018-07-26T11:57:38.437Z,1.90
2018-07-26T12:00:07.872Z,1.70
2018-07-26T12:02:36.274Z,1.67
2018-07-26T12:05:04.760Z,1.50
2018-07-26T12:07:32.842Z,1.73
2018-07-26T12:10:00.928Z,1.70
2018-07-26T12:12:29.026Z,1.80
2018-07-26T12:14:57.102Z,1.67
2018-07-26T12:17:25.188Z,1.60
2018-07-26T12:19:53.275Z,1.90
2018-07-26T12:22:27.949Z,1.60
2018-07-26T12:24:56.041Z,2.17
2018-07-26T12:27:29.820Z,1.90
2018-07-26T12:29:57.908Z,1.60
2018-07-26T12:32:26.012Z,1.92
2018-07-26T12:34:54.395Z,1.60
2018-07-26T12:37:22.520Z,1.87
2018-07-26T12:39:50.778Z,1.82
2018-07-26T12:42:25.728Z,2.00
2018-07-26T12:44:53.825Z,1.80
2018-07-26T12:47:22.019Z,1.80
2018-07-26T12:49:50.069Z,1.87
2018-07-26T12:52:20.839Z,1.97
2018-07-26T12:54:49.333Z,2.40
2018-07-26T12:57:17.592Z,2.40
2018-07-26T12:59:45.673Z,2.17
2018-07-26T13:02:13.793Z,2.05
2018-07-26T13:04:41.887Z,2.02
2018-07-26T13:07:10.015Z,1.87
2018-07-26T13:09:38.160Z,2.00
2018-07-26T13:12:06.307Z,1.70
2018-07-26T13:14:34.415Z,2.30
2018-07-26T13:17:02.495Z,1.83
2018-07-26T13:19:30.592Z,2.13
2018-07-26T13:21:58.684Z,2.50
2018-07-26T13:24:26.771Z,1.90
2018-07-26T13:26:54.873Z,2.13
2018-07-26T13:29:23.267Z,2.00
2018-07-26T13:31:51.356Z,2.00
2018-07-26T13:34:19.458Z,2.00
2018-07-26T13:36:47.545Z,1.80
2018-07-26T13:39:15.641Z,1.80
2018-07-26T13:41:43.748Z,2.00
2018-07-26T13:44:11.839Z,2.22
2018-07-26T13:46:39.939Z,2.23
2018-07-26T13:49:08.037Z,1.72
2018-07-26T13:51:36.142Z,1.97
2018-07-26T13:54:04.253Z,1.60
2018-07-26T13:56:38.095Z,1.87
2018-07-26T13:59:06.172Z,1.80
2018-07-26T14:01:34.263Z,2.00
2018-07-26T14:04:02.366Z,2.00
2018-07-26T14:06:30.434Z,1.90
2018-07-26T14:08:58.527Z,2.10
2018-07-26T14:11:26.635Z,1.70
2018-07-26T14:13:54.704Z,2.00
2018-07-26T14:16:22.842Z,1.60
2018-07-26T14:18:50.963Z,1.50
2018-07-26T14:21:19.119Z,2.40
2018-07-26T14:23:51.375Z,2.20
2018-07-26T14:26:19.551Z,2.00
2018-07-26T14:28:47.647Z,2.00
2018-07-26T14:31:15.730Z,1.75
2018-07-26T14:33:43.817Z,2.30
2018-07-26T14:36:11.911Z,2.13
2018-07-26T14:38:40.679Z,2.12
2018-07-26T14:41:08.813Z,2.40
2018-07-26T14:43:36.954Z,1.90
2018-07-26T14:46:04.989Z,1.77
2018-07-26T14:48:39.800Z,2.10
2018-07-26T14:51:07.893Z,2.27
2018-07-26T14:53:35.996Z,2.10
2018-07-26T14:56:04.083Z,2.20
2018-07-26T14:58:32.368Z,2.30
2018-07-26T15:01:00.600Z,2.10
2018-07-26T15:03:28.652Z,1.80
2018-07-26T15:05:56.764Z,1.90
2018-07-26T15:08:24.865Z,2.10
2018-07-26T15:10:52.971Z,1.90
2018-07-26T15:13:21.345Z,2.17
2018-07-26T15:15:49.452Z,2.00
2018-07-26T15:18:17.526Z,2.12
2018-07-26T15:20:45.737Z,2.40
2018-07-26T15:23:13.821Z,2.20
2018-07-26T15:25:41.947Z,2.45
2018-07-26T15:28:10.063Z,2.23
2018-07-26T15:30:38.152Z,2.50
2018-07-26T15:33:06.257Z,2.70
2018-07-26T15:35:34.342Z,2.00
2018-07-26T15:38:02.441Z,2.00
2018-07-26T15:40:31.341Z,2.00
2018-07-26T15:42:59.437Z,3.15
2018-07-26T15:45:27.545Z,2.47
2018-07-26T15:47:55.637Z,2.23
2018-07-26T15:50:23.739Z,2.60
2018-07-26T15:52:51.833Z,2.00
2018-07-26T15:55:19.917Z,2.67
2018-07-26T15:57:48.007Z,2.90
2018-07-26T16:00:16.102Z,2.17
2018-07-26T16:02:44.195Z,2.47
2018-07-26T16:05:13.273Z,2.00
2018-07-26T16:07:41.320Z,2.20
2018-07-26T16:10:09.880Z,2.67
2018-07-26T16:12:38.248Z,2.27
2018-07-26T16:15:08.515Z,2.60
2018-07-26T16:17:36.688Z,2.60
2018-07-26T16:20:06.668Z,2.30
2018-07-26T16:22:34.805Z,2.97
2018-07-26T16:25:02.888Z,2.33
2018-07-26T16:27:31.188Z,2.80
2018-07-26T16:29:59.310Z,2.63
2018-07-26T16:32:27.820Z,2.00
2018-07-26T16:34:55.912Z,2.70
2018-07-26T16:37:23.994Z,2.20
2018-07-26T16:39:52.120Z,2.27
2018-07-26T16:42:20.475Z,2.43
2018-07-26T16:44:48.621Z,2.73
2018-07-26T16:47:17.055Z,2.80
2018-07-26T16:49:45.146Z,2.37
2018-07-26T16:52:13.554Z,2.03
2018-07-26T16:54:41.643Z,2.20
2018-07-26T16:57:09.744Z,2.60
2018-07-26T16:59:37.850Z,3.02
2018-07-26T17:02:05.955Z,2.40
2018-07-26T17:04:34.049Z,2.55
2018-07-26T17:07:02.137Z,2.67
2018-07-26T17:09:30.221Z,3.08
2018-07-26T17:11:58.352Z,3.42
2018-07-26T17:14:26.451Z,2.50
2018-07-26T17:16:54.545Z,3.40
2018-07-26T17:19:22.629Z,9.07
2018-07-26T17:21:50.747Z,6.63
2018-07-26T17:24:18.907Z,2.60
2018-07-26T17:26:47.019Z,2.30
2018-07-26T17:29:16.757Z,2.83
2018-07-26T17:31:45.068Z,3.07
2018-07-26T17:34:13.220Z,3.00
2018-07-26T17:36:41.311Z,2.80
2018-07-26T17:39:11.227Z,2.70
2018-07-26T17:41:39.607Z,2.70
2018-07-26T17:44:07.714Z,2.97
2018-07-26T17:46:35.835Z,2.60
2018-07-26T17:49:03.937Z,2.60
2018-07-26T17:51:32.321Z,3.23
2018-07-26T17:54:00.411Z,2.47
2018-07-26T17:56:28.489Z,2.77
2018-07-26T17:58:56.585Z,3.07
2018-07-26T18:01:24.676Z,3.43
2018-07-26T18:03:52.784Z,2.47
2018-07-26T18:06:20.953Z,2.70
2018-07-26T18:08:49.040Z,2.60
2018-07-26T18:11:17.618Z,2.85
2018-07-26T18:13:45.767Z,2.60
2018-07-26T18:16:13.862Z,2.93
2018-07-26T18:18:41.960Z,2.50
2018-07-26T18:21:10.087Z,2.70
2018-07-26T18:23:38.187Z,3.00
2018-07-26T18:26:06.327Z,2.77
2018-07-26T18:28:34.430Z,2.50
2018-07-26T18:31:02.548Z,2.60
2018-07-26T18:33:30.640Z,2.80
2018-07-26T18:35:58.731Z,2.40
2018-07-26T18:38:26.859Z,3.00
2018-07-26T18:40:54.961Z,2.70
2018-07-26T18:43:23.194Z,2.40
2018-07-26T18:45:51.293Z,2.70
2018-07-26T18:48:19.629Z,3.03
2018-07-26T18:50:48.032Z,2.90
2018-07-26T18:53:16.140Z,2.70
2018-07-26T18:55:44.372Z,2.80
2018-07-26T18:58:12.489Z,3.63
2018-07-26T19:00:40.596Z,3.57
2018-07-26T19:03:08.677Z,3.00
2018-07-26T19:05:36.772Z,3.30
2018-07-26T19:08:05.596Z,3.53
2018-07-26T19:10:33.684Z,2.60
2018-07-26T19:13:01.782Z,2.60
2018-07-26T19:15:29.883Z,2.80
2018-07-26T19:17:57.996Z,3.43
2018-07-26T19:20:26.122Z,5.30
2018-07-26T19:22:54.236Z,3.37
2018-07-26T19:25:23.401Z,3.03
2018-07-26T19:27:51.509Z,2.30
2018-07-26T19:30:20.343Z,2.75
2018-07-26T19:32:48.451Z,3.40
2018-07-26T19:35:16.581Z,3.00
2018-07-26T19:37:44.656Z,2.93
2018-07-26T19:40:19.494Z,2.97
2018-07-26T19:42:47.581Z,2.67
2018-07-26T19:45:15.708Z,3.12
2018-07-26T19:47:43.813Z,2.67
2018-07-26T19:50:11.957Z,3.80
2018-07-26T19:52:40.059Z,3.03
2018-07-26T19:55:09.875Z,2.90
2018-07-26T19:57:37.975Z,2.60
2018-07-26T20:00:06.951Z,2.30
2018-07-26T20:02:36.234Z,2.60
2018-07-26T20:05:04.709Z,2.30
2018-07-26T20:07:32.789Z,2.60
2018-07-26T20:10:00.956Z,3.20
2018-07-26T20:12:29.024Z,3.50
2018-07-26T20:14:57.171Z,3.13
2018-07-26T20:17:25.328Z,3.60
2018-07-26T20:19:53.415Z,3.37
2018-07-26T20:22:22.348Z,3.60
2018-07-26T20:24:50.448Z,3.67
2018-07-26T20:27:18.520Z,3.37
2018-07-26T20:29:46.615Z,3.60
2018-07-26T20:32:14.692Z,3.30
2018-07-26T20:34:43.110Z,3.10
2018-07-26T20:37:11.227Z,4.20
2018-07-26T20:39:39.371Z,3.70
2018-07-26T20:42:07.519Z,3.43
2018-07-26T20:44:35.624Z,3.40
2018-07-26T20:47:03.782Z,3.60
2018-07-26T20:49:31.945Z,3.60
2018-07-26T20:52:00.057Z,3.93
2018-07-26T20:54:28.175Z,3.43
2018-07-26T20:56:56.292Z,3.47
2018-07-26T20:59:24.455Z,3.00
2018-07-26T21:01:52.586Z,3.00
2018-07-26T21:04:20.737Z,3.75
2018-07-26T21:06:48.875Z,4.00
2018-07-26T21:09:16.961Z,2.77
2018-07-26T21:11:45.596Z,3.40
2018-07-26T21:14:13.701Z,2.90
2018-07-26T21:16:42.099Z,3.80
2018-07-26T21:19:10.221Z,3.10
2018-07-26T21:21:38.439Z,3.22
2018-07-26T21:24:06.532Z,3.50
2018-07-26T21:26:34.631Z,3.30
2018-07-26T21:29:02.728Z,3.43
2018-07-26T21:31:33.842Z,3.70
2018-07-26T21:34:01.924Z,4.83
2018-07-26T21:36:30.045Z,4.08
2018-07-26T21:38:58.123Z,4.20
2018-07-26T21:41:26.209Z,4.63
2018-07-26T21:43:55.323Z,5.05
2018-07-26T21:46:23.517Z,5.10
2018-07-26T21:48:51.624Z,4.83
2018-07-26T21:51:19.737Z,3.80
2018-07-26T21:53:47.840Z,3.67
2018-07-26T21:56:16.088Z,5.33
2018-07-26T21:58:44.202Z,5.17
2018-07-26T22:13:11.941Z,5.47
2018-07-26T22:15:40.287Z,5.47
2018-07-26T22:18:08.493Z,4.90
2018-07-26T22:20:36.583Z,4.95
2018-07-26T22:23:04.710Z,4.67
2018-07-26T22:25:32.993Z,4.83
2018-07-26T22:28:01.100Z,4.80
2018-07-26T22:30:29.216Z,5.10
2018-07-26T22:32:57.710Z,5.43
2018-07-26T22:35:25.905Z,4.83
2018-07-26T22:37:54.332Z,5.17
2018-07-26T22:40:23.238Z,4.10
2018-07-26T22:42:51.399Z,5.10
2018-07-26T22:45:19.490Z,4.83
2018-07-26T22:47:47.632Z,4.30
2018-07-26T22:50:15.738Z,4.60
2018-07-26T22:52:43.921Z,4.00
2018-07-26T22:55:12.078Z,4.87
2018-07-26T22:57:40.191Z,4.12
2018-07-26T23:00:08.529Z,4.35
2018-07-26T23:02:36.619Z,4.07
2018-07-26T23:05:05.092Z,4.60
2018-07-26T23:07:33.220Z,4.90
2018-07-26T23:10:01.339Z,4.23
2018-07-26T23:12:29.417Z,4.47
2018-07-26T23:14:57.578Z,4.60
2018-07-26T23:17:25.948Z,5.40
2018-07-26T23:19:54.048Z,4.33
2018-07-26T23:22:22.164Z,4.97
2018-07-26T23:24:50.251Z,4.40
2018-07-26T23:27:18.372Z,4.13
2018-07-26T23:29:46.479Z,4.63
2018-07-26T23:32:14.578Z,4.30
2018-07-26T23:34:42.680Z,4.77
2018-07-26T23:37:10.785Z,5.00
2018-07-26T23:39:38.886Z,4.10
2018-07-26T23:42:06.971Z,4.93
2018-07-26T23:44:35.072Z,5.93
2018-07-26T23:47:03.158Z,4.50
2018-07-26T23:49:31.228Z,4.23
2018-07-26T23:51:59.308Z,5.40
2018-07-26T23:54:27.418Z,5.83
2018-07-26T23:56:55.494Z,4.90
2018-07-26T23:59:23.612Z,4.73
